createdAt,value
2023-06-24T00:00:01.873Z,17.80
2023-06-24T00:02:34.562Z,17.80
2023-06-24T00:05:01.894Z,17.80
2023-06-24T00:07:28.904Z,17.70
2023-06-24T00:09:56.304Z,17.70
2023-06-24T00:12:23.349Z,17.70
2023-06-24T00:14:53.485Z,17.70
2023-06-24T00:17:20.486Z,17.60
2023-06-24T00:19:47.420Z,17.60
2023-06-24T00:22:16.013Z,17.50
2023-06-24T00:24:43.334Z,17.50
2023-06-24T00:27:10.547Z,17.40
2023-06-24T00:29:37.544Z,17.40
2023-06-24T00:32:08.270Z,17.30
2023-06-24T00:34:36.045Z,17.30
2023-06-24T00:37:03.714Z,17.30
2023-06-24T00:39:30.671Z,17.20
2023-06-24T00:41:57.664Z,17.20
2023-06-24T00:44:28.777Z,17.10
2023-06-24T00:46:55.976Z,17.10
2023-06-24T00:49:24.283Z,17.00
2023-06-24T00:51:51.328Z,17.00
2023-06-24T00:54:18.721Z,16.90
2023-06-24T00:56:46.978Z,16.90
2023-06-24T00:59:17.833Z,16.80
2023-06-24T01:04:21.011Z,16.80
2023-06-24T01:06:50.370Z,16.70
2023-06-24T01:09:17.408Z,16.70
2023-06-24T01:11:44.585Z,16.70
2023-06-24T01:14:16.286Z,16.60
2023-06-24T01:16:52.955Z,16.60
2023-06-24T01:19:45.605Z,16.60
2023-06-24T01:22:38.012Z,16.50
2023-06-24T01:25:34.910Z,16.50
2023-06-24T01:28:31.491Z,16.40
2023-06-24T01:31:37.719Z,16.40
2023-06-24T01:34:21.263Z,16.30
2023-06-24T01:36:56.658Z,16.30
2023-06-24T01:39:28.633Z,16.30
2023-06-24T01:42:06.325Z,16.30
2023-06-24T01:44:36.338Z,16.20
2023-06-24T01:47:11.142Z,16.20
2023-06-24T01:49:42.555Z,16.20
2023-06-24T01:52:12.455Z,16.10
2023-06-24T01:54:43.121Z,16.10
2023-06-24T01:57:13.003Z,16.10
2023-06-24T01:59:44.952Z,16.10
2023-06-24T02:02:14.342Z,16.10
2023-06-24T02:04:43.562Z,16.10
2023-06-24T02:07:13.723Z,16.00
2023-06-24T02:09:43.018Z,16.00
2023-06-24T02:12:11.311Z,16.00
2023-06-24T02:14:43.012Z,16.00
2023-06-24T02:17:17.872Z,15.90
2023-06-24T02:19:45.424Z,15.90
2023-06-24T02:22:13.981Z,15.90
2023-06-24T02:24:42.690Z,15.90
2023-06-24T02:27:12.515Z,15.80
2023-06-24T02:29:41.220Z,15.80
2023-06-24T02:32:09.857Z,15.80
2023-06-24T02:34:38.490Z,15.70
2023-06-24T02:37:06.472Z,15.70
2023-06-24T02:39:34.426Z,15.70
2023-06-24T02:42:01.529Z,15.60
2023-06-24T02:44:30.770Z,15.70
2023-06-24T02:47:01.990Z,15.60
2023-06-24T02:49:31.627Z,15.60
2023-06-24T02:52:02.472Z,15.60
2023-06-24T02:54:30.961Z,15.50
2023-06-24T02:57:27.388Z,15.50
2023-06-24T03:00:15.069Z,15.50
2023-06-24T03:03:05.652Z,15.50
2023-06-24T03:05:36.602Z,15.50
2023-06-24T03:08:05.867Z,15.40
2023-06-24T03:10:37.254Z,15.40
2023-06-24T03:13:05.499Z,15.40
2023-06-24T03:15:44.327Z,15.40
2023-06-24T03:18:11.585Z,15.40
2023-06-24T03:20:39.596Z,15.40
2023-06-24T03:23:12.394Z,15.50
2023-06-24T03:25:40.132Z,15.40
2023-06-24T03:28:07.167Z,15.40
2023-06-24T03:30:35.849Z,15.40
2023-06-24T03:33:03.238Z,15.40
2023-06-24T03:35:30.502Z,15.40
2023-06-24T03:38:02.094Z,15.40
2023-06-24T03:40:32.048Z,15.50
2023-06-24T03:43:01.588Z,15.50
2023-06-24T03:45:28.741Z,15.50
2023-06-24T03:47:55.952Z,15.50
2023-06-24T03:50:24.375Z,15.50
2023-06-24T03:52:51.563Z,15.50
2023-06-24T03:55:18.953Z,15.60
2023-06-24T03:57:47.252Z,15.60
2023-06-24T04:00:15.611Z,15.60
2023-06-24T04:02:45.731Z,15.60
2023-06-24T04:05:42.772Z,15.70
2023-06-24T04:08:09.718Z,15.70
2023-06-24T04:10:36.657Z,15.70
2023-06-24T04:13:06.604Z,15.80
2023-06-24T04:15:34.759Z,15.80
2023-06-24T04:18:02.065Z,15.80
2023-06-24T04:20:29.116Z,15.90
2023-06-24T04:22:56.345Z,15.90
2023-06-24T04:25:29.229Z,15.90
2023-06-24T04:27:58.434Z,16.00
2023-06-24T04:30:27.395Z,16.00
2023-06-24T04:32:54.494Z,16.10
2023-06-24T04:35:26.679Z,16.10
2023-06-24T04:37:53.879Z,16.20
2023-06-24T04:40:21.071Z,16.20
2023-06-24T04:42:48.206Z,16.30
2023-06-24T04:45:15.878Z,16.30
2023-06-24T04:47:50.470Z,16.40
2023-06-24T04:50:17.676Z,16.40
2023-06-24T04:52:44.621Z,16.50
2023-06-24T04:55:11.749Z,16.50
2023-06-24T04:57:38.701Z,16.60
2023-06-24T05:00:07.849Z,16.70
2023-06-24T05:02:37.439Z,16.90
2023-06-24T05:05:06.362Z,17.00
2023-06-24T05:07:33.465Z,17.10
2023-06-24T05:10:00.445Z,17.20
2023-06-24T05:12:30.089Z,17.30
2023-06-24T05:14:57.263Z,17.40
2023-06-24T05:17:26.438Z,17.50
2023-06-24T05:19:53.476Z,17.50
2023-06-24T05:22:21.759Z,17.60
2023-06-24T05:24:48.785Z,17.60
2023-06-24T05:27:15.708Z,17.60
2023-06-24T05:29:44.984Z,17.70
2023-06-24T05:32:11.881Z,17.70
2023-06-24T05:34:39.275Z,17.80
2023-06-24T05:37:08.407Z,17.80
2023-06-24T05:39:36.845Z,17.80
2023-06-24T05:42:04.658Z,17.90
2023-06-24T05:44:34.951Z,18.00
2023-06-24T05:47:02.114Z,18.10
2023-06-24T05:49:29.301Z,18.20
2023-06-24T05:51:57.320Z,18.40
2023-06-24T05:54:24.746Z,18.60
2023-06-24T05:56:53.126Z,18.80
2023-06-24T05:59:20.246Z,19.00
2023-06-24T06:01:47.339Z,19.20
2023-06-24T06:04:14.526Z,19.30
2023-06-24T06:06:42.016Z,19.60
2023-06-24T06:09:09.022Z,19.80
2023-06-24T06:11:36.224Z,20.00
2023-06-24T06:14:04.532Z,20.10
2023-06-24T06:16:31.668Z,20.10
2023-06-24T06:18:58.695Z,20.10
2023-06-24T06:21:26.024Z,20.10
2023-06-24T06:23:52.938Z,20.20
2023-06-24T06:26:20.058Z,20.30
2023-06-24T06:28:47.027Z,20.50
2023-06-24T06:31:16.069Z,20.60
2023-06-24T06:33:44.251Z,20.60
2023-06-24T06:36:12.491Z,20.50
2023-06-24T06:38:39.444Z,21.00
2023-06-24T06:41:06.371Z,21.50
2023-06-24T06:43:34.637Z,22.00
2023-06-24T06:46:01.863Z,22.40
2023-06-24T06:48:30.437Z,22.70
2023-06-24T06:50:57.354Z,23.10
2023-06-24T06:53:24.417Z,23.50
2023-06-24T06:55:52.255Z,24.00
2023-06-24T06:58:19.467Z,24.50
2023-06-24T07:00:46.381Z,24.90
2023-06-24T07:03:13.453Z,25.10
2023-06-24T07:05:43.422Z,25.20
2023-06-24T07:08:10.577Z,25.20
2023-06-24T07:10:37.544Z,25.20
2023-06-24T07:13:04.865Z,25.70
2023-06-24T07:15:32.181Z,25.70
2023-06-24T07:17:59.304Z,25.70
2023-06-24T07:20:26.493Z,25.70
2023-06-24T07:22:54.870Z,25.30
2023-06-24T07:25:22.524Z,25.50
2023-06-24T07:27:49.553Z,25.90
2023-06-24T07:30:16.714Z,26.20
2023-06-24T07:32:43.992Z,26.80
2023-06-24T07:35:11.131Z,27.40
2023-06-24T07:37:38.225Z,28.00
2023-06-24T07:40:08.551Z,28.40
2023-06-24T07:42:35.788Z,28.90
2023-06-24T07:45:03.530Z,29.10
2023-06-24T07:47:30.574Z,29.50
2023-06-24T07:49:57.671Z,30.00
2023-06-24T07:52:24.936Z,29.90
2023-06-24T07:54:51.886Z,29.90
2023-06-24T07:57:20.228Z,29.90
2023-06-24T07:59:48.019Z,30.20
2023-06-24T08:02:15.135Z,30.30
2023-06-24T08:04:42.748Z,29.90
2023-06-24T08:07:10.041Z,29.70
2023-06-24T08:09:37.065Z,29.80
2023-06-24T08:12:05.675Z,30.30
2023-06-24T08:14:34.083Z,30.30
2023-06-24T08:17:01.279Z,30.80
2023-06-24T08:19:28.420Z,31.00
2023-06-24T08:21:55.396Z,30.90
2023-06-24T08:24:25.502Z,30.90
2023-06-24T08:26:52.651Z,31.30
2023-06-24T08:29:19.911Z,31.70
2023-06-24T08:31:48.197Z,31.70
2023-06-24T08:34:15.889Z,31.30
2023-06-24T08:36:43.066Z,31.30
2023-06-24T08:39:10.105Z,31.60
2023-06-24T08:41:37.647Z,32.00
2023-06-24T08:44:05.016Z,32.60
2023-06-24T08:46:32.478Z,33.00
2023-06-24T08:49:20.409Z,33.20
2023-06-24T08:51:54.377Z,33.40
2023-06-24T08:54:24.148Z,33.80
2023-06-24T08:56:51.887Z,34.00
2023-06-24T08:59:19.074Z,34.10
2023-06-24T09:01:46.770Z,34.30
2023-06-24T09:04:15.188Z,34.60
2023-06-24T09:06:42.400Z,34.70
2023-06-24T09:09:19.849Z,34.90
2023-06-24T09:11:53.245Z,35.20
2023-06-24T09:14:20.671Z,35.30
2023-06-24T09:16:55.247Z,35.30
2023-06-24T09:19:24.673Z,35.50
2023-06-24T09:21:52.537Z,35.40
2023-06-24T09:24:19.677Z,35.50
2023-06-24T09:26:46.749Z,35.80
2023-06-24T09:29:14.755Z,35.80
2023-06-24T09:31:49.593Z,35.90
2023-06-24T09:34:17.706Z,36.20
2023-06-24T09:36:51.843Z,36.40
2023-06-24T09:39:29.375Z,36.50
2023-06-24T09:41:58.229Z,36.70
2023-06-24T09:44:26.768Z,36.90
2023-06-24T09:46:55.179Z,37.10
2023-06-24T09:49:22.193Z,37.10
2023-06-24T09:51:56.490Z,37.20
2023-06-24T09:54:27.529Z,37.70
2023-06-24T09:57:00.364Z,38.10
2023-06-24T09:59:31.005Z,37.40
2023-06-24T10:01:59.654Z,37.00
2023-06-24T10:04:29.164Z,37.90
2023-06-24T10:06:59.234Z,38.40
2023-06-24T10:09:26.472Z,38.90
2023-06-24T10:11:53.505Z,39.00
2023-06-24T10:14:21.088Z,38.60
2023-06-24T10:16:48.098Z,38.10
2023-06-24T10:19:21.795Z,38.40
2023-06-24T10:21:53.087Z,38.60
2023-06-24T10:24:33.053Z,38.50
2023-06-24T10:27:05.232Z,38.70
2023-06-24T10:29:34.141Z,38.40
2023-06-24T10:32:04.702Z,38.70
2023-06-24T10:34:41.830Z,39.20
2023-06-24T10:37:13.629Z,38.10
2023-06-24T10:39:48.783Z,38.90
2023-06-24T10:42:31.344Z,39.70
2023-06-24T10:45:00.383Z,39.10
2023-06-24T10:47:30.511Z,38.60
2023-06-24T10:50:01.047Z,38.10
2023-06-24T10:52:28.247Z,39.10
2023-06-24T10:54:59.984Z,39.80
2023-06-24T10:57:28.830Z,40.20
2023-06-24T10:59:57.495Z,40.30
2023-06-24T11:02:28.033Z,40.40
2023-06-24T11:04:57.052Z,40.40
2023-06-24T11:07:26.260Z,40.40
2023-06-24T11:09:57.527Z,40.50
2023-06-24T11:12:25.874Z,40.70
2023-06-24T11:14:56.405Z,40.40
2023-06-24T11:17:23.219Z,40.40
2023-06-24T11:19:50.209Z,39.90
2023-06-24T11:22:18.573Z,39.90
2023-06-24T11:24:47.838Z,40.70
2023-06-24T11:27:16.458Z,41.50
2023-06-24T11:29:43.431Z,40.30
2023-06-24T11:32:10.869Z,38.80
2023-06-24T11:34:39.152Z,38.00
2023-06-24T11:37:13.914Z,38.10
2023-06-24T11:39:41.508Z,39.30
2023-06-24T11:42:09.630Z,38.60
2023-06-24T11:44:43.128Z,37.20
2023-06-24T11:47:12.314Z,38.20
2023-06-24T11:49:52.949Z,39.10
2023-06-24T11:52:33.688Z,39.50
2023-06-24T11:55:01.485Z,39.40
2023-06-24T11:57:54.008Z,39.60
2023-06-24T12:00:24.132Z,40.50
2023-06-24T12:02:54.256Z,39.00
2023-06-24T12:05:24.884Z,38.50
2023-06-24T12:07:51.867Z,37.50
2023-06-24T12:10:18.948Z,38.00
2023-06-24T12:12:45.945Z,36.70
2023-06-24T12:15:12.842Z,35.70
2023-06-24T12:17:41.404Z,35.10
2023-06-24T12:20:10.074Z,36.80
2023-06-24T12:25:28.907Z,38.90
2023-06-24T12:27:56.193Z,39.50
2023-06-24T12:30:23.124Z,39.10
2023-06-24T12:32:52.129Z,38.10
2023-06-24T12:35:19.455Z,36.90
2023-06-24T12:37:47.896Z,36.00
2023-06-24T12:40:14.996Z,36.80
2023-06-24T12:42:41.927Z,37.60
2023-06-24T12:45:10.292Z,38.50
2023-06-24T12:47:37.241Z,37.50
2023-06-24T12:50:09.031Z,38.70
2023-06-24T12:52:36.809Z,37.60
2023-06-24T12:55:04.483Z,38.30
2023-06-24T12:57:31.559Z,37.20
2023-06-24T13:00:01.775Z,37.20
2023-06-24T13:02:28.945Z,36.30
2023-06-24T13:04:56.137Z,35.70
2023-06-24T13:07:24.832Z,35.10
2023-06-24T13:09:51.885Z,34.50
2023-06-24T13:12:18.920Z,34.20
2023-06-24T13:14:45.834Z,33.80
2023-06-24T13:17:12.816Z,33.60
2023-06-24T13:19:39.891Z,34.90
2023-06-24T13:22:06.925Z,35.40
2023-06-24T13:24:35.256Z,34.70
2023-06-24T13:27:02.375Z,34.60
2023-06-24T13:29:29.620Z,34.30
2023-06-24T13:31:56.577Z,34.00
2023-06-24T13:34:23.913Z,33.80
2023-06-24T13:36:50.891Z,33.60
2023-06-24T13:39:17.916Z,33.30
2023-06-24T13:41:47.061Z,33.50
2023-06-24T13:44:14.197Z,32.90
2023-06-24T13:46:41.252Z,34.40
2023-06-24T13:49:08.481Z,34.20
2023-06-24T13:51:39.095Z,34.50
2023-06-24T13:54:07.849Z,35.50
2023-06-24T13:56:35.114Z,36.00
2023-06-24T13:59:03.683Z,35.10
2023-06-24T14:01:30.816Z,34.30
2023-06-24T14:03:58.371Z,33.70
2023-06-24T14:06:25.806Z,33.20
2023-06-24T14:08:53.098Z,32.90
2023-06-24T14:11:20.566Z,33.20
2023-06-24T14:13:47.766Z,34.40
2023-06-24T14:16:17.837Z,36.10
2023-06-24T14:18:45.112Z,37.10
2023-06-24T14:21:12.438Z,37.70
2023-06-24T14:23:42.663Z,38.00
2023-06-24T14:26:09.559Z,38.40
2023-06-24T14:28:36.731Z,38.70
2023-06-24T14:31:03.823Z,39.00
2023-06-24T14:33:32.232Z,38.30
2023-06-24T14:35:59.256Z,38.10
2023-06-24T14:38:29.283Z,38.20
2023-06-24T14:40:57.069Z,38.80
2023-06-24T14:43:24.089Z,38.30
2023-06-24T14:48:43.661Z,36.90
2023-06-24T14:51:10.791Z,36.50
2023-06-24T14:53:41.009Z,36.40
2023-06-24T14:56:08.012Z,36.30
2023-06-24T14:58:34.890Z,36.00
2023-06-24T15:01:01.902Z,35.50
2023-06-24T15:03:28.982Z,35.20
2023-06-24T15:05:57.645Z,35.40
2023-06-24T15:08:24.602Z,35.40
2023-06-24T15:10:52.138Z,35.40
2023-06-24T15:13:19.542Z,35.00
2023-06-24T15:15:46.456Z,35.20
2023-06-24T15:18:13.552Z,35.50
2023-06-24T15:20:40.474Z,35.00
2023-06-24T15:23:08.831Z,34.90
2023-06-24T15:25:35.880Z,34.10
2023-06-24T15:28:03.376Z,33.70
2023-06-24T15:30:30.376Z,33.40
2023-06-24T15:32:58.359Z,33.10
2023-06-24T15:35:25.410Z,33.70
2023-06-24T15:37:52.326Z,33.40
2023-06-24T15:40:20.789Z,33.10
2023-06-24T15:42:47.657Z,32.90
2023-06-24T15:45:17.464Z,32.60
2023-06-24T15:47:44.673Z,32.30
2023-06-24T15:50:11.787Z,32.00
2023-06-24T15:52:38.812Z,31.70
2023-06-24T15:55:09.580Z,31.40
2023-06-24T15:57:37.849Z,31.10
2023-06-24T16:00:05.936Z,30.90
2023-06-24T16:02:33.289Z,30.70
2023-06-24T16:05:00.342Z,30.60
2023-06-24T16:07:27.504Z,30.40
2023-06-24T16:09:54.524Z,30.20
2023-06-24T16:12:21.434Z,30.10
2023-06-24T16:14:49.712Z,30.00
2023-06-24T16:17:16.704Z,30.00
2023-06-24T16:19:43.617Z,29.90
2023-06-24T16:22:10.516Z,29.80
2023-06-24T16:24:37.765Z,29.70
2023-06-24T16:27:06.019Z,29.60
2023-06-24T16:29:33.107Z,29.50
2023-06-24T16:32:01.377Z,29.30
2023-06-24T16:34:30.699Z,29.10
2023-06-24T16:36:58.168Z,28.90
2023-06-24T16:39:25.113Z,28.80
2023-06-24T16:41:52.038Z,28.80
2023-06-24T16:44:18.943Z,28.70
2023-06-24T16:46:45.974Z,28.60
2023-06-24T16:49:14.668Z,28.60
2023-06-24T16:51:41.749Z,28.60
2023-06-24T16:54:08.999Z,28.60
2023-06-24T16:56:36.613Z,28.60
2023-06-24T16:59:03.948Z,28.60
2023-06-24T17:01:30.867Z,28.70
2023-06-24T17:03:57.936Z,28.60
2023-06-24T17:06:26.284Z,28.60
2023-06-24T17:08:53.251Z,28.60
2023-06-24T17:11:20.241Z,28.60
2023-06-24T17:13:47.376Z,28.60
2023-06-24T17:16:14.326Z,28.60
2023-06-24T17:18:41.294Z,28.60
2023-06-24T17:21:08.208Z,28.70
2023-06-24T17:23:37.698Z,28.70
2023-06-24T17:26:04.688Z,28.70
2023-06-24T17:28:31.684Z,28.70
2023-06-24T17:33:50.196Z,28.70
2023-06-24T17:36:17.754Z,28.60
2023-06-24T17:38:46.224Z,28.50
2023-06-24T17:41:13.406Z,28.50
2023-06-24T17:43:41.004Z,28.40
2023-06-24T17:46:08.140Z,28.40
2023-06-24T17:48:35.261Z,28.30
2023-06-24T17:51:02.616Z,28.30
2023-06-24T17:53:29.864Z,28.20
2023-06-24T17:55:58.498Z,28.10
2023-06-24T17:58:25.608Z,28.00
2023-06-24T18:00:52.674Z,27.90
2023-06-24T18:03:19.601Z,27.80
2023-06-24T18:05:46.651Z,27.70
2023-06-24T18:08:16.656Z,27.60
2023-06-24T18:10:43.739Z,27.50
2023-06-24T18:13:12.237Z,27.40
2023-06-24T18:15:39.157Z,27.40
2023-06-24T18:18:06.343Z,27.40
2023-06-24T18:20:33.414Z,27.30
2023-06-24T18:23:00.421Z,27.30
2023-06-24T18:25:27.441Z,27.20
2023-06-24T18:27:54.378Z,27.20
2023-06-24T18:30:22.764Z,27.10
2023-06-24T18:32:49.876Z,27.10
2023-06-24T18:35:17.024Z,27.00
2023-06-24T18:37:43.929Z,26.90
2023-06-24T18:40:11.590Z,26.90
2023-06-24T18:42:38.514Z,26.80
2023-06-24T18:45:06.899Z,26.80
2023-06-24T18:47:35.802Z,26.70
2023-06-24T18:50:03.092Z,26.60
2023-06-24T18:52:30.020Z,26.60
2023-06-24T18:54:57.033Z,26.50
2023-06-24T18:57:23.981Z,26.50
2023-06-24T18:59:50.966Z,26.50
2023-06-24T19:02:17.982Z,26.50
2023-06-24T19:04:46.294Z,26.40
2023-06-24T19:07:13.261Z,26.30
2023-06-24T19:09:40.259Z,26.30
2023-06-24T19:12:08.284Z,26.20
2023-06-24T19:14:35.211Z,26.20
2023-06-24T19:17:02.099Z,26.10
2023-06-24T19:19:29.100Z,26.10
2023-06-24T19:21:57.307Z,26.00
2023-06-24T19:24:24.270Z,25.90
2023-06-24T19:26:53.606Z,25.90
2023-06-24T19:29:20.529Z,25.80
2023-06-24T19:31:47.518Z,25.80
2023-06-24T19:34:14.913Z,25.80
2023-06-24T19:36:41.924Z,25.70
2023-06-24T19:39:10.234Z,25.70
2023-06-24T19:41:37.717Z,25.60
2023-06-24T19:44:06.960Z,25.60
2023-06-24T19:46:41.142Z,25.50
2023-06-24T19:49:10.030Z,25.50
2023-06-24T19:51:37.145Z,25.40
2023-06-24T19:54:04.611Z,25.40
2023-06-24T19:56:33.352Z,25.30
2023-06-24T19:59:03.461Z,25.30
2023-06-24T20:01:30.446Z,25.20
2023-06-24T20:03:57.396Z,25.10
2023-06-24T20:06:24.417Z,25.10
2023-06-24T20:08:51.348Z,25.00
2023-06-24T20:11:21.419Z,25.00
2023-06-24T20:13:49.764Z,25.00
2023-06-24T20:16:16.822Z,24.90
2023-06-24T20:18:43.807Z,24.90
2023-06-24T20:21:10.803Z,24.80
2023-06-24T20:23:37.965Z,24.80
2023-06-24T20:26:05.017Z,24.70
2023-06-24T20:28:31.996Z,24.70
2023-06-24T20:31:03.538Z,24.70
2023-06-24T20:33:30.710Z,24.60
2023-06-24T20:35:57.692Z,24.60
2023-06-24T20:38:24.686Z,24.60
2023-06-24T20:40:51.899Z,24.50
2023-06-24T20:43:18.951Z,24.50
2023-06-24T20:45:45.909Z,24.50
2023-06-24T20:48:18.800Z,24.50
2023-06-24T20:50:46.406Z,24.40
2023-06-24T20:53:13.444Z,24.40
2023-06-24T20:55:40.375Z,24.40
2023-06-24T20:58:08.958Z,24.40
2023-06-24T21:00:37.221Z,24.30
2023-06-24T21:03:04.633Z,24.30
2023-06-24T21:05:33.025Z,24.30
2023-06-24T21:07:59.936Z,24.20
2023-06-24T21:10:26.864Z,24.20
2023-06-24T21:12:58.245Z,24.10
2023-06-24T21:15:26.193Z,24.10
2023-06-24T21:17:53.247Z,24.10
2023-06-24T21:20:20.415Z,24.10
2023-06-24T21:22:48.832Z,24.00
2023-06-24T21:25:15.956Z,24.00
2023-06-24T21:27:42.968Z,24.00
2023-06-24T21:30:11.080Z,24.00
2023-06-24T21:32:38.058Z,23.90
2023-06-24T21:35:06.566Z,23.90
2023-06-24T21:37:33.509Z,23.90
2023-06-24T21:40:01.908Z,23.90
2023-06-24T21:42:29.352Z,23.80
2023-06-24T21:44:59.723Z,23.80
2023-06-24T21:47:26.828Z,23.70
2023-06-24T21:49:53.695Z,23.70
2023-06-24T21:52:20.742Z,23.60
2023-06-24T21:54:47.758Z,23.60
2023-06-24T21:57:16.011Z,23.50
2023-06-24T21:59:42.980Z,23.50
2023-06-24T22:02:10.070Z,23.40
2023-06-24T22:04:37.108Z,23.40
2023-06-24T22:07:04.685Z,23.30
2023-06-24T22:09:31.701Z,23.30
2023-06-24T22:11:58.685Z,23.20
2023-06-24T22:14:27.057Z,23.20
2023-06-24T22:16:53.986Z,23.10
2023-06-24T22:19:21.183Z,23.00
2023-06-24T22:21:48.058Z,23.00
2023-06-24T22:24:15.057Z,22.90
2023-06-24T22:26:41.987Z,22.80
2023-06-24T22:29:08.915Z,22.80
2023-06-24T22:31:37.226Z,22.70
2023-06-24T22:34:04.435Z,22.60
2023-06-24T22:36:31.725Z,22.50
2023-06-24T22:38:58.798Z,22.50
2023-06-24T22:41:25.957Z,22.40
2023-06-24T22:43:53.220Z,22.30
2023-06-24T22:46:20.193Z,22.20
2023-06-24T22:48:48.493Z,22.10
2023-06-24T22:51:15.469Z,22.10
2023-06-24T22:53:42.360Z,22.00
2023-06-24T22:56:09.449Z,21.90
2023-06-24T22:58:36.412Z,21.80
2023-06-24T23:01:09.365Z,21.80
2023-06-24T23:03:37.153Z,21.70
2023-06-24T23:06:06.928Z,21.60
2023-06-24T23:08:34.811Z,21.60
2023-06-24T23:11:02.581Z,21.50
2023-06-24T23:13:30.259Z,21.50
2023-06-24T23:15:58.009Z,21.40
2023-06-24T23:18:25.829Z,21.30
2023-06-24T23:20:54.065Z,21.30
2023-06-24T23:23:23.063Z,21.20
2023-06-24T23:25:51.032Z,21.20
2023-06-24T23:28:19.202Z,21.10
2023-06-24T23:30:48.041Z,21.00
2023-06-24T23:33:16.943Z,21.00
2023-06-24T23:35:46.914Z,20.90
2023-06-24T23:38:14.474Z,20.90
2023-06-24T23:40:43.648Z,20.80
2023-06-24T23:43:11.388Z,20.80
2023-06-24T23:48:30.351Z,20.60
2023-06-24T23:50:57.755Z,20.60
2023-06-24T23:53:25.102Z,20.50
2023-06-24T23:55:53.458Z,20.50
2023-06-24T23:58:20.616Z,20.40
